createdAt,value
2023-03-16T00:04:12.776Z,83.79
2023-03-16T00:07:05.475Z,83.80
2023-03-16T00:13:02.384Z,83.79
2023-03-16T00:15:35.593Z,83.78
2023-03-16T00:18:05.380Z,83.81
2023-03-16T00:20:35.615Z,83.80
2023-03-16T00:23:05.812Z,83.84
2023-03-16T00:25:36.086Z,83.75
2023-03-16T00:28:05.812Z,83.83
2023-03-16T00:30:38.147Z,83.94
2023-03-16T00:33:08.050Z,83.93
2023-03-16T00:35:38.040Z,83.93
2023-03-16T00:38:07.861Z,83.80
2023-03-16T00:40:37.589Z,83.94
2023-03-16T00:43:10.429Z,83.92
2023-03-16T00:45:45.163Z,83.96
2023-03-16T00:48:14.990Z,83.98
2023-03-16T00:50:45.272Z,83.94
2023-03-16T00:53:15.029Z,83.80
2023-03-16T00:55:44.777Z,83.90
2023-03-16T00:58:15.101Z,83.86
2023-03-16T01:00:48.777Z,83.97
2023-03-16T01:03:18.614Z,83.89
2023-03-16T01:05:49.009Z,83.95
2023-03-16T01:08:18.845Z,83.82
2023-03-16T01:10:48.619Z,83.86
2023-03-16T01:13:18.347Z,83.72
2023-03-16T01:15:53.932Z,83.80
2023-03-16T01:18:23.682Z,83.88
2023-03-16T01:20:53.631Z,83.77
2023-03-16T01:23:24.149Z,83.85
2023-03-16T01:25:55.717Z,83.73
2023-03-16T01:28:28.366Z,83.69
2023-03-16T01:31:03.579Z,83.71
2023-03-16T01:33:33.777Z,83.67
2023-03-16T01:36:06.322Z,83.71
2023-03-16T01:38:36.468Z,83.62
2023-03-16T01:41:13.210Z,83.67
2023-03-16T01:43:44.770Z,83.56
2023-03-16T01:46:26.140Z,83.75
2023-03-16T01:49:05.734Z,83.67
2023-03-16T01:51:42.227Z,83.68
2023-03-16T01:54:17.975Z,83.54
2023-03-16T01:56:55.484Z,83.73
2023-03-16T01:59:29.340Z,83.63
2023-03-16T02:02:04.963Z,83.66
2023-03-16T02:04:48.449Z,83.70
2023-03-16T02:07:20.798Z,83.75
2023-03-16T02:09:54.818Z,83.72
2023-03-16T02:12:24.741Z,83.62
2023-03-16T02:14:55.238Z,83.69
2023-03-16T02:17:31.103Z,83.76
2023-03-16T02:20:14.621Z,83.75
2023-03-16T02:22:49.364Z,83.69
2023-03-16T02:25:21.612Z,83.82
2023-03-16T02:28:03.458Z,83.66
2023-03-16T02:30:35.968Z,83.67
2023-03-16T02:33:06.686Z,83.81
2023-03-16T02:35:37.110Z,83.66
2023-03-16T02:38:06.884Z,83.75
2023-03-16T02:40:38.868Z,83.73
2023-03-16T02:43:13.978Z,83.76
2023-03-16T02:45:49.534Z,83.64
2023-03-16T02:48:24.664Z,83.65
2023-03-16T02:50:56.557Z,83.68
2023-03-16T02:53:26.600Z,83.49
2023-03-16T02:55:56.364Z,83.52
2023-03-16T02:58:26.077Z,83.62
2023-03-16T03:00:59.809Z,83.43
2023-03-16T03:03:29.612Z,83.63
2023-03-16T03:05:59.458Z,83.54
2023-03-16T03:08:29.200Z,83.55
2023-03-16T03:10:59.132Z,83.54
2023-03-16T03:13:28.856Z,83.45
2023-03-16T03:16:03.408Z,83.54
2023-03-16T03:18:34.833Z,83.60
2023-03-16T03:21:04.846Z,83.60
2023-03-16T03:23:35.096Z,83.60
2023-03-16T03:26:08.136Z,83.71
2023-03-16T03:28:37.904Z,83.67
2023-03-16T03:31:10.730Z,83.61
2023-03-16T03:33:40.706Z,83.68
2023-03-16T03:36:11.433Z,83.69
2023-03-16T03:38:41.430Z,83.65
2023-03-16T03:41:11.311Z,83.65
2023-03-16T03:43:41.160Z,83.76
2023-03-16T03:46:13.665Z,83.80
2023-03-16T03:48:43.498Z,83.79
2023-03-16T03:51:13.253Z,83.80
2023-03-16T03:53:43.008Z,83.81
2023-03-16T03:56:12.853Z,83.87
2023-03-16T03:58:42.581Z,83.90
2023-03-16T04:01:17.937Z,83.99
2023-03-16T04:03:47.751Z,83.85
2023-03-16T04:06:17.555Z,84.02
2023-03-16T04:08:47.394Z,84.01
2023-03-16T04:11:17.144Z,83.92
2023-03-16T04:13:46.882Z,83.97
2023-03-16T04:16:19.292Z,84.02
2023-03-16T04:18:49.163Z,84.03
2023-03-16T04:21:20.499Z,83.95
2023-03-16T04:23:54.400Z,84.02
2023-03-16T04:26:25.739Z,83.89
2023-03-16T04:28:55.578Z,83.93
2023-03-16T04:31:27.996Z,83.90
2023-03-16T04:33:57.723Z,84.05
2023-03-16T04:36:27.530Z,84.10
2023-03-16T04:38:57.277Z,84.14
2023-03-16T04:41:29.156Z,84.16
2023-03-16T04:43:59.201Z,84.19
2023-03-16T04:46:31.597Z,84.16
2023-03-16T04:49:01.639Z,84.20
2023-03-16T04:51:31.842Z,84.18
2023-03-16T04:54:01.668Z,84.22
2023-03-16T04:56:31.398Z,84.26
2023-03-16T04:59:01.378Z,84.23
2023-03-16T05:01:33.744Z,84.25
2023-03-16T05:04:03.502Z,84.29
2023-03-16T05:06:36.281Z,84.28
2023-03-16T05:09:08.557Z,84.31
2023-03-16T05:11:38.523Z,84.44
2023-03-16T05:14:08.381Z,84.42
2023-03-16T05:16:42.114Z,84.39
2023-03-16T05:19:12.626Z,84.46
2023-03-16T05:21:42.351Z,84.26
2023-03-16T05:24:13.040Z,84.46
2023-03-16T05:26:42.841Z,84.58
2023-03-16T05:29:12.601Z,84.58
2023-03-16T05:31:46.849Z,84.50
2023-03-16T05:34:16.691Z,84.64
2023-03-16T05:36:46.664Z,84.55
2023-03-16T05:39:16.417Z,84.53
2023-03-16T05:41:47.397Z,84.68
2023-03-16T05:44:17.137Z,84.62
2023-03-16T05:46:49.565Z,84.61
2023-03-16T05:49:19.549Z,84.61
2023-03-16T05:51:49.993Z,84.83
2023-03-16T05:54:19.868Z,84.82
2023-03-16T05:56:50.008Z,84.86
2023-03-16T05:59:21.563Z,84.83
2023-03-16T06:01:54.179Z,84.95
2023-03-16T06:04:24.223Z,84.93
2023-03-16T06:06:53.996Z,84.96
2023-03-16T06:09:26.791Z,85.05
2023-03-16T06:11:56.541Z,85.07
2023-03-16T06:14:26.325Z,85.18
2023-03-16T06:16:58.712Z,85.37
2023-03-16T06:19:28.454Z,85.35
2023-03-16T06:21:58.239Z,85.51
2023-03-16T06:24:27.980Z,85.46
2023-03-16T06:26:57.785Z,85.59
2023-03-16T06:29:27.523Z,85.61
2023-03-16T06:32:00.210Z,85.70
2023-03-16T06:34:29.997Z,85.87
2023-03-16T06:37:02.616Z,85.94
2023-03-16T06:39:32.918Z,86.07
2023-03-16T06:42:06.937Z,86.18
2023-03-16T06:44:37.574Z,86.15
2023-03-16T06:47:10.574Z,86.42
2023-03-16T06:49:40.383Z,86.27
2023-03-16T06:52:10.692Z,86.45
2023-03-16T06:54:40.510Z,86.55
2023-03-16T06:57:10.306Z,86.56
2023-03-16T06:59:40.043Z,86.71
2023-03-16T07:02:14.530Z,86.78
2023-03-16T07:04:44.636Z,86.77
2023-03-16T07:07:14.817Z,86.99
2023-03-16T07:09:44.930Z,87.04
2023-03-16T07:12:15.081Z,87.05
2023-03-16T07:14:44.856Z,87.22
2023-03-16T07:17:17.208Z,87.27
2023-03-16T07:19:49.987Z,87.42
2023-03-16T07:22:19.719Z,87.45
2023-03-16T07:24:52.193Z,87.49
2023-03-16T07:27:23.441Z,87.57
2023-03-16T07:29:55.015Z,87.70
2023-03-16T07:32:30.168Z,87.71
2023-03-16T07:35:00.268Z,87.73
2023-03-16T07:37:30.074Z,87.99
2023-03-16T07:39:59.947Z,87.92
2023-03-16T07:42:29.795Z,87.99
2023-03-16T07:44:59.565Z,88.11
2023-03-16T07:47:33.761Z,88.10
2023-03-16T07:50:04.086Z,88.25
2023-03-16T07:52:37.110Z,88.37
2023-03-16T07:55:09.833Z,88.41
2023-03-16T07:57:40.000Z,88.51
2023-03-16T08:00:11.377Z,88.68
2023-03-16T08:02:44.176Z,88.78
2023-03-16T08:05:15.562Z,88.87
2023-03-16T08:07:45.370Z,88.95
2023-03-16T08:10:15.439Z,89.06
2023-03-16T08:12:45.210Z,89.15
2023-03-16T08:15:15.688Z,89.16
2023-03-16T08:17:49.833Z,89.29
2023-03-16T08:20:19.848Z,89.47
2023-03-16T08:22:49.898Z,89.38
2023-03-16T08:25:20.254Z,89.52
2023-03-16T08:27:51.396Z,89.76
2023-03-16T08:30:22.773Z,89.79
2023-03-16T08:32:55.165Z,89.87
2023-03-16T08:35:24.916Z,89.89
2023-03-16T08:37:55.701Z,90.09
2023-03-16T08:40:29.391Z,90.06
2023-03-16T08:43:01.821Z,90.27
2023-03-16T08:45:31.634Z,90.37
2023-03-16T08:48:05.139Z,90.49
2023-03-16T08:50:34.889Z,90.55
2023-03-16T08:53:04.576Z,90.66
2023-03-16T08:55:34.301Z,90.71
2023-03-16T08:58:04.497Z,90.88
2023-03-16T09:00:34.332Z,91.03
2023-03-16T09:03:06.915Z,91.22
2023-03-16T09:05:37.007Z,91.33
2023-03-16T09:08:06.914Z,91.54
2023-03-16T09:10:38.191Z,91.62
2023-03-16T09:13:08.734Z,91.83
2023-03-16T09:15:39.079Z,91.86
2023-03-16T09:18:11.794Z,92.06
2023-03-16T09:20:41.597Z,92.21
2023-03-16T09:23:11.825Z,92.31
2023-03-16T09:25:41.540Z,92.50
2023-03-16T09:28:11.439Z,92.62
2023-03-16T09:30:41.209Z,92.81
2023-03-16T09:33:13.797Z,92.93
2023-03-16T09:35:43.570Z,93.10
2023-03-16T09:38:16.439Z,93.22
2023-03-16T09:40:47.342Z,93.40
2023-03-16T09:43:49.861Z,93.59
2023-03-16T09:46:35.006Z,93.75
2023-03-16T09:49:08.637Z,94.10
2023-03-16T09:51:47.209Z,94.08
2023-03-16T09:54:26.667Z,94.34
2023-03-16T09:56:58.722Z,94.52
2023-03-16T09:59:28.703Z,94.87
2023-03-16T10:02:29.338Z,95.05
2023-03-16T10:05:10.682Z,95.16
2023-03-16T10:07:53.360Z,95.42
2023-03-16T10:10:42.082Z,95.65
2023-03-16T10:13:26.050Z,95.93
2023-03-16T10:15:58.663Z,96.02
2023-03-16T10:18:32.490Z,96.22
2023-03-16T10:21:06.162Z,96.36
2023-03-16T10:23:40.932Z,96.44
2023-03-16T10:26:16.962Z,96.69
2023-03-16T10:28:46.742Z,96.86
2023-03-16T10:31:24.738Z,97.07
2023-03-16T10:34:02.180Z,97.24
2023-03-16T10:36:38.236Z,97.37
2023-03-16T10:39:10.287Z,97.49
2023-03-16T10:41:41.796Z,97.62
2023-03-16T10:44:14.935Z,97.84
2023-03-16T10:46:48.495Z,97.91
2023-03-16T10:49:25.926Z,98.13
2023-03-16T10:52:00.427Z,98.20
2023-03-16T10:54:40.240Z,98.28
2023-03-16T10:57:18.705Z,98.45
2023-03-16T10:59:52.903Z,98.68
2023-03-16T11:02:26.518Z,98.61
2023-03-16T11:04:57.543Z,98.70
2023-03-16T11:07:30.098Z,98.82
2023-03-16T11:10:01.976Z,98.91
2023-03-16T11:12:35.051Z,98.90
2023-03-16T11:15:09.457Z,99.11
2023-03-16T11:17:49.870Z,99.13
2023-03-16T11:20:23.581Z,99.27
2023-03-16T11:22:56.386Z,99.33
2023-03-16T11:25:32.060Z,99.38
2023-03-16T11:28:13.742Z,99.55
2023-03-16T11:30:46.402Z,99.57
2023-03-16T11:33:17.346Z,99.80
2023-03-16T11:35:59.260Z,99.79
2023-03-16T11:38:38.474Z,99.86
2023-03-16T11:41:14.988Z,100.00
2023-03-16T11:43:53.665Z,100.00
2023-03-16T11:46:27.936Z,100.00
2023-03-16T11:49:14.568Z,100.00
2023-03-16T11:51:50.816Z,100.00
2023-03-16T11:54:38.776Z,100.00
2023-03-16T11:57:14.034Z,100.00
2023-03-16T12:00:01.700Z,100.00
2023-03-16T12:02:47.619Z,100.00
2023-03-16T12:05:35.582Z,100.00
2023-03-16T12:08:20.786Z,100.00
2023-03-16T12:11:00.446Z,100.00
2023-03-16T12:13:44.846Z,100.00
2023-03-16T12:16:22.431Z,100.00
2023-03-16T12:18:57.941Z,100.00
2023-03-16T12:21:34.461Z,100.00
2023-03-16T12:24:07.172Z,100.00
2023-03-16T12:26:43.447Z,100.00
2023-03-16T12:29:24.485Z,100.00
2023-03-16T12:32:03.419Z,100.00
2023-03-16T12:34:41.550Z,100.00
2023-03-16T12:37:25.484Z,100.00
2023-03-16T12:40:09.229Z,100.00
2023-03-16T12:42:55.398Z,100.00
2023-03-16T12:45:35.455Z,100.00
2023-03-16T12:48:17.098Z,100.00
2023-03-16T12:50:54.233Z,99.99
2023-03-16T12:53:31.929Z,99.89
2023-03-16T12:56:08.980Z,99.82
2023-03-16T12:58:45.721Z,99.63
2023-03-16T13:01:18.626Z,99.47
2023-03-16T13:03:52.370Z,99.31
2023-03-16T13:06:25.120Z,99.22
2023-03-16T13:09:01.194Z,98.95
2023-03-16T13:11:31.388Z,98.90
2023-03-16T13:14:18.275Z,98.70
2023-03-16T13:16:49.925Z,98.44
2023-03-16T13:19:27.429Z,98.35
2023-03-16T13:22:09.418Z,98.18
2023-03-16T13:24:42.804Z,98.00
2023-03-16T13:27:23.404Z,97.90
2023-03-16T13:30:05.424Z,97.66
2023-03-16T13:32:36.736Z,97.53
2023-03-16T13:35:11.623Z,97.46
2023-03-16T13:37:44.823Z,97.26
2023-03-16T13:40:23.862Z,97.09
2023-03-16T13:42:56.340Z,97.02
2023-03-16T13:45:36.529Z,97.00
2023-03-16T13:48:08.758Z,96.97
2023-03-16T13:50:41.401Z,96.85
2023-03-16T13:53:17.717Z,96.74
2023-03-16T13:55:50.350Z,96.49
2023-03-16T13:58:26.170Z,96.30
2023-03-16T14:01:05.197Z,96.15
2023-03-16T14:03:37.096Z,96.02
2023-03-16T14:06:08.103Z,95.76
2023-03-16T14:08:38.266Z,95.50
2023-03-16T14:11:08.188Z,95.41
2023-03-16T14:13:39.662Z,95.01
2023-03-16T14:16:20.043Z,94.82
2023-03-16T14:18:51.791Z,94.59
2023-03-16T14:21:25.913Z,94.34
2023-03-16T14:23:57.999Z,94.14
2023-03-16T14:26:28.001Z,93.91
2023-03-16T14:29:01.362Z,93.74
2023-03-16T14:31:41.570Z,93.54
2023-03-16T14:34:25.482Z,93.40
2023-03-16T14:36:55.425Z,93.32
2023-03-16T14:39:30.686Z,93.03
2023-03-16T14:42:00.902Z,92.89
2023-03-16T14:44:35.576Z,92.80
2023-03-16T14:47:09.224Z,92.64
2023-03-16T14:49:43.220Z,92.54
2023-03-16T14:52:24.942Z,92.45
2023-03-16T14:54:55.460Z,92.36
2023-03-16T14:57:26.061Z,92.10
2023-03-16T14:59:56.231Z,92.03
2023-03-16T15:02:32.784Z,91.84
2023-03-16T15:05:03.844Z,91.77
2023-03-16T15:07:37.541Z,91.70
2023-03-16T15:10:13.448Z,91.46
2023-03-16T15:12:50.422Z,91.35
2023-03-16T15:15:23.051Z,91.07
2023-03-16T15:17:56.622Z,90.89
2023-03-16T15:20:31.970Z,90.75
2023-03-16T15:23:03.377Z,90.57
2023-03-16T15:25:38.712Z,90.40
2023-03-16T15:28:15.948Z,90.15
2023-03-16T15:30:46.820Z,89.83
2023-03-16T15:33:19.361Z,89.76
2023-03-16T15:35:53.049Z,89.53
2023-03-16T15:38:26.795Z,89.35
2023-03-16T15:40:58.505Z,89.24
2023-03-16T15:43:30.048Z,89.01
2023-03-16T15:46:01.649Z,88.87
2023-03-16T15:48:34.118Z,88.88
2023-03-16T15:51:07.778Z,88.71
2023-03-16T15:53:41.509Z,88.45
2023-03-16T15:56:15.038Z,88.46
2023-03-16T15:58:46.878Z,88.26
2023-03-16T16:01:25.560Z,88.15
2023-03-16T16:03:59.345Z,87.98
2023-03-16T16:06:30.550Z,87.82
2023-03-16T16:09:00.369Z,87.80
2023-03-16T16:11:31.297Z,87.66
2023-03-16T16:14:02.253Z,87.53
2023-03-16T16:16:33.900Z,87.41
2023-03-16T16:19:06.422Z,87.27
2023-03-16T16:21:36.484Z,87.13
2023-03-16T16:24:06.532Z,87.08
2023-03-16T16:26:52.174Z,86.93
2023-03-16T16:29:36.198Z,86.87
2023-03-16T16:32:06.160Z,86.79
2023-03-16T16:34:38.573Z,86.72
2023-03-16T16:37:08.305Z,86.63
2023-03-16T16:39:38.131Z,86.51
2023-03-16T16:42:08.417Z,86.46
2023-03-16T16:44:38.259Z,86.46
2023-03-16T16:47:16.926Z,86.29
2023-03-16T16:49:49.650Z,86.19
2023-03-16T16:52:20.439Z,86.04
2023-03-16T16:54:50.204Z,85.90
2023-03-16T16:57:22.533Z,85.87
2023-03-16T16:59:53.188Z,85.84
2023-03-16T17:02:29.889Z,85.70
2023-03-16T17:05:02.374Z,85.59
2023-03-16T17:07:32.364Z,85.47
2023-03-16T17:10:05.548Z,85.36
2023-03-16T17:12:35.868Z,85.28
2023-03-16T17:15:06.005Z,85.06
2023-03-16T17:17:35.789Z,84.94
2023-03-16T17:20:16.861Z,84.79
2023-03-16T17:22:50.888Z,84.71
2023-03-16T17:25:20.817Z,84.55
2023-03-16T17:27:53.578Z,84.46
2023-03-16T17:30:29.866Z,84.34
2023-03-16T17:33:06.584Z,84.26
2023-03-16T17:35:45.134Z,84.15
2023-03-16T17:38:24.322Z,83.95
2023-03-16T17:40:58.520Z,83.90
2023-03-16T17:43:28.350Z,83.80
2023-03-16T17:45:58.313Z,83.62
2023-03-16T17:48:28.451Z,83.57
2023-03-16T17:51:00.881Z,83.40
2023-03-16T17:53:30.660Z,83.31
2023-03-16T17:56:00.522Z,83.32
2023-03-16T17:58:32.660Z,83.21
2023-03-16T18:01:03.280Z,83.22
2023-03-16T18:03:33.107Z,83.15
2023-03-16T18:06:05.606Z,82.98
2023-03-16T18:08:36.936Z,82.91
2023-03-16T18:11:10.934Z,82.92
2023-03-16T18:13:42.694Z,82.78
2023-03-16T18:16:20.066Z,82.76
2023-03-16T18:18:49.940Z,82.69
2023-03-16T18:21:25.912Z,82.68
2023-03-16T18:23:57.093Z,82.69
2023-03-16T18:26:27.744Z,82.64
2023-03-16T18:28:58.106Z,82.65
2023-03-16T18:31:31.109Z,82.67
2023-03-16T18:34:06.758Z,82.62
2023-03-16T18:36:41.491Z,82.61
2023-03-16T18:39:21.989Z,82.65
2023-03-16T18:41:52.379Z,82.56
2023-03-16T18:44:24.316Z,82.73
2023-03-16T18:46:57.641Z,82.52
2023-03-16T18:49:32.648Z,82.74
2023-03-16T18:52:05.251Z,82.73
2023-03-16T18:54:36.989Z,82.81
2023-03-16T18:57:20.696Z,82.99
2023-03-16T18:59:50.913Z,82.85
2023-03-16T19:02:31.343Z,82.87
2023-03-16T19:05:04.711Z,82.89
2023-03-16T19:07:39.595Z,82.97
2023-03-16T19:10:20.842Z,83.02
2023-03-16T19:12:50.578Z,83.05
2023-03-16T19:15:23.022Z,83.11
2023-03-16T19:17:56.097Z,83.12
2023-03-16T19:20:29.106Z,83.17
2023-03-16T19:23:06.039Z,83.19
2023-03-16T19:25:39.207Z,83.20
2023-03-16T19:28:14.850Z,83.29
2023-03-16T19:30:46.784Z,83.37
2023-03-16T19:33:23.533Z,83.42
2023-03-16T19:35:53.986Z,83.38
2023-03-16T19:38:28.030Z,83.46
2023-03-16T19:41:07.182Z,83.49
2023-03-16T19:54:48.627Z,83.93
2023-03-16T19:57:24.522Z,84.02
2023-03-16T19:59:58.596Z,84.05
2023-03-16T20:02:30.509Z,84.17
2023-03-16T20:05:01.855Z,84.14
2023-03-16T20:07:37.934Z,84.24
2023-03-16T20:10:12.149Z,84.23
2023-03-16T20:12:44.594Z,84.24
2023-03-16T20:15:21.600Z,84.28
2023-03-16T20:17:52.981Z,84.33
2023-03-16T20:20:28.262Z,84.34
2023-03-16T20:22:59.933Z,84.28
2023-03-16T20:25:38.427Z,84.25
2023-03-16T20:28:34.267Z,84.28
2023-03-16T20:31:04.370Z,84.33
2023-03-16T20:33:35.155Z,84.33
2023-03-16T20:36:05.173Z,84.12
2023-03-16T20:38:35.844Z,84.43
2023-03-16T20:41:22.358Z,84.28
2023-03-16T20:43:52.553Z,84.21
2023-03-16T20:47:24.815Z,84.40
2023-03-16T20:49:57.527Z,84.34
2023-03-16T20:52:30.994Z,84.28
2023-03-16T20:55:02.821Z,84.34
2023-03-16T20:57:36.479Z,84.41
2023-03-16T21:00:15.734Z,84.34
2023-03-16T21:02:45.926Z,84.45
2023-03-16T21:05:16.996Z,84.53
2023-03-16T21:07:46.852Z,84.54
2023-03-16T21:10:20.778Z,84.58
2023-03-16T21:12:57.641Z,84.59
2023-03-16T21:15:29.651Z,84.65
2023-03-16T21:18:01.870Z,84.61
2023-03-16T21:20:34.367Z,84.78
2023-03-16T21:23:04.389Z,84.69
2023-03-16T21:25:37.491Z,84.74
2023-03-16T21:28:10.438Z,84.73
2023-03-16T21:30:46.030Z,84.82
2023-03-16T21:33:22.561Z,84.79
2023-03-16T21:35:52.402Z,84.88
2023-03-16T21:38:24.467Z,84.97
2023-03-16T21:40:54.689Z,84.96
2023-03-16T21:43:27.601Z,85.09
2023-03-16T21:45:58.966Z,85.10
2023-03-16T21:48:34.552Z,85.20
2023-03-16T21:51:04.365Z,85.26
2023-03-16T21:53:35.140Z,85.23
2023-03-16T21:56:05.300Z,85.31
2023-03-16T21:58:38.448Z,85.39
2023-03-16T22:01:08.638Z,85.35
2023-03-16T22:03:50.947Z,85.45
2023-03-16T22:06:21.351Z,85.41
2023-03-16T22:08:52.467Z,85.54
2023-03-16T22:11:23.943Z,85.36
2023-03-16T22:13:57.295Z,85.52
2023-03-16T22:16:30.101Z,85.59
2023-03-16T22:19:00.844Z,85.51
2023-03-16T22:21:35.263Z,85.58
2023-03-16T22:24:07.591Z,85.62
2023-03-16T22:26:37.519Z,85.60
2023-03-16T22:29:23.453Z,85.87
2023-03-16T22:31:56.511Z,85.59
2023-03-16T22:34:32.847Z,85.65
2023-03-16T22:37:07.521Z,85.63
2023-03-16T22:39:39.793Z,85.62
2023-03-16T22:42:27.861Z,85.77
2023-03-16T22:45:00.960Z,85.79
2023-03-16T22:47:34.228Z,85.81
2023-03-16T22:50:04.015Z,85.88
2023-03-16T22:52:38.203Z,85.92
2023-03-16T22:55:11.327Z,85.90
2023-03-16T22:57:41.142Z,85.88
2023-03-16T23:00:20.995Z,85.93
2023-03-16T23:02:51.607Z,85.93
2023-03-16T23:05:24.682Z,85.96
2023-03-16T23:07:55.165Z,85.94
2023-03-16T23:10:28.499Z,86.05
2023-03-16T23:12:59.555Z,86.09
2023-03-16T23:15:33.587Z,86.09
2023-03-16T23:18:03.341Z,86.17
2023-03-16T23:20:34.510Z,86.14
2023-03-16T23:23:04.288Z,86.26
2023-03-16T23:25:34.145Z,86.21
2023-03-16T23:28:05.027Z,86.30
2023-03-16T23:30:37.990Z,86.32
2023-03-16T23:33:08.168Z,86.35
2023-03-16T23:35:38.039Z,86.40
2023-03-16T23:38:08.265Z,86.53
2023-03-16T23:40:40.871Z,86.50
2023-03-16T23:43:11.470Z,86.50
2023-03-16T23:45:45.361Z,86.59
2023-03-16T23:48:19.689Z,86.71
2023-03-16T23:50:52.197Z,86.72
2023-03-16T23:53:22.849Z,86.81
2023-03-16T23:55:54.283Z,86.97
2023-03-16T23:58:24.062Z,86.96
